Terminal Aerodrome Forecast
Issued by NWS Duluth, MN

Home | Current Version | Previous Version | Text Only | Print | Product List | Glossary On
Versions: 1 2 3 4 5 6 7 8 9 10 11 12 13 14 15 16 17 18 19 20 21 22 23
000
FTUS43 KDLH 151500 AAB
TAFINL
TAF AMD
KINL 151502Z 1515/1612 33012KT 6SM -DZ OVC006
      TEMPO 1515/1518 34012G20KT 5SM -FZDZ OVC008
     FM151800 34014G25KT 5SM -FZDZSN OVC008
     FM152200 35014G24KT 5SM -SN BKN012 OVC025=

USA.gov is the U.S. government's official web portal to all federal, state and local government web resources and services.